Time;durP1;ratioP1;P1;durP2;ratioP2;P2;SDS_P1;SDS_P2;PMS_P1;PMS_P2;Temp;Humidity;BMP_temperature;BMP_pressure;BME280_temperature;BME280_humidity;BME280_pressure;Samples;Min_cycle;Max_cycle;Signal;HPM_P1;HPM_P2
2021/04/26 00:00:06;;;;;;;3.20;2.90;;;;;;;6.60;43.49;102111.81;5021776;28;20202;-69
2021/04/26 00:02:31;;;;;;;3.30;2.83;;;;;;;7.27;42.13;102108.00;5021491;28;20171;-69
2021/04/26 00:04:56;;;;;;;3.33;3.00;;;;;;;7.34;42.05;102102.25;5021728;28;20506;-69
2021/04/26 00:07:22;;;;;;;5.10;3.03;;;;;;;7.42;41.59;102093.09;5021371;28;20265;-68
2021/04/26 00:09:47;;;;;;;2.90;2.70;;;;;;;7.30;41.71;102102.06;5021501;28;20221;-70
2021/04/26 00:12:12;;;;;;;3.07;2.77;;;;;;;7.01;43.13;102097.31;5021614;28;20257;-69
2021/04/26 00:14:37;;;;;;;3.03;2.63;;;;;;;7.38;41.70;102093.78;5021000;28;20175;-69
2021/04/26 00:17:03;;;;;;;3.20;2.97;;;;;;;7.54;42.06;102091.91;5021351;28;20194;-69
2021/04/26 00:19:28;;;;;;;5.30;2.87;;;;;;;7.86;41.45;102085.50;5021277;28;20500;-69
2021/04/26 00:21:53;;;;;;;4.10;2.90;;;;;;;7.95;40.97;102084.97;5021717;28;20175;-67
2021/04/26 00:24:19;;;;;;;3.50;2.73;;;;;;;7.09;42.67;102087.31;5020933;28;20281;-68
2021/04/26 00:26:44;;;;;;;4.17;3.27;;;;;;;7.13;42.17;102083.13;5021345;28;20431;-69
2021/04/26 00:29:09;;;;;;;3.50;2.70;;;;;;;7.43;41.98;102083.63;5021026;28;20442;-68
2021/04/26 00:31:35;;;;;;;4.60;2.63;;;;;;;7.24;42.01;102084.53;5020592;28;20209;-68
2021/04/26 00:34:00;;;;;;;3.47;2.80;;;;;;;7.64;41.05;102081.06;5021172;28;20198;-70
2021/04/26 00:36:26;;;;;;;4.17;2.67;;;;;;;7.86;40.70;102069.00;5020952;28;20175;-70
2021/04/26 00:38:51;;;;;;;6.10;3.00;;;;;;;7.29;41.60;102075.22;5021810;28;20533;-73
2021/04/26 00:41:16;;;;;;;5.10;4.60;;;;;;;7.30;41.68;102081.31;5023556;28;20438;-73
2021/04/26 00:43:42;;;;;;;3.40;2.70;;;;;;;7.93;39.81;102071.94;5020826;28;20560;-68
2021/04/26 00:46:07;;;;;;;6.17;2.80;;;;;;;7.52;40.55;102070.16;5020784;28;20481;-68
2021/04/26 00:48:32;;;;;;;3.53;2.47;;;;;;;7.85;41.26;102077.66;5020544;28;20230;-68
2021/04/26 00:50:57;;;;;;;7.20;2.73;;;;;;;7.46;41.84;102072.50;5020721;28;20429;-68
2021/04/26 00:53:23;;;;;;;7.33;2.93;;;;;;;7.79;40.80;102069.59;5020387;28;20174;-68
2021/04/26 00:55:48;;;;;;;3.67;2.70;;;;;;;7.32;42.18;102065.00;5020970;28;20171;-68
2021/04/26 00:58:14;;;;;;;3.20;2.90;;;;;;;7.56;41.85;102065.19;5019839;28;20167;-68
2021/04/26 01:00:39;;;;;;;2.73;2.53;;;;;;;7.90;40.94;102058.84;5019695;28;20549;-68
2021/04/26 01:03:04;;;;;;;3.90;2.50;;;;;;;7.91;41.30;102062.31;5020823;28;20521;-69
2021/04/26 01:05:32;;;;;;;4.20;3.00;;;;;;;7.18;42.84;102060.91;5020305;28;20183;-69
2021/04/26 01:07:57;;;;;;;2.87;2.57;;;;;;;7.61;40.82;102060.19;5020100;28;20234;-68
2021/04/26 01:10:25;;;;;;;3.10;2.70;;;;;;;7.41;40.74;102057.63;5020561;28;20446;-68
2021/04/26 01:13:18;;;;;;;4.47;2.93;;;;;;;6.83;42.50;102055.00;5020199;28;20266;-68
2021/04/26 01:16:14;;;;;;;3.87;2.60;;;;;;;7.47;41.12;102053.50;5002988;28;20414;-67
2021/04/26 01:19:09;;;;;;;4.40;2.60;;;;;;;7.40;40.56;102053.25;5019934;28;20863;-70
2021/04/26 01:22:13;;;;;;;2.53;2.33;;;;;;;7.48;39.71;102047.50;5019250;28;20747;-72
2021/04/26 01:24:47;;;;;;;3.10;2.80;;;;;;;7.01;39.78;102053.25;5019185;28;20461;-72
2021/04/26 01:27:36;;;;;;;4.70;2.93;;;;;;;6.95;41.57;102047.78;5020134;28;20456;-71
2021/04/26 01:30:18;;;;;;;3.23;2.57;;;;;;;7.57;38.92;102050.50;5020001;28;20500;-70
2021/04/26 01:32:49;;;;;;;2.80;2.43;;;;;;;7.01;39.03;102049.75;5019434;28;20483;-70
2021/04/26 01:35:16;;;;;;;2.90;2.43;;;;;;;7.27;39.41;102050.94;5002153;28;20504;-68
2021/04/26 01:37:42;;;;;;;2.50;2.30;;;;;;;7.51;39.10;102055.41;5018455;28;20825;-71
2021/04/26 01:40:11;;;;;;;4.23;2.43;;;;;;;7.12;40.11;102050.22;5019800;28;20504;-70
2021/04/26 01:42:39;;;;;;;2.57;2.37;;;;;;;7.44;38.89;102040.41;5002086;28;20420;-69
2021/04/26 01:45:06;;;;;;;3.43;2.67;;;;;;;7.63;37.95;102042.09;5018423;28;20553;-69
2021/04/26 01:47:34;;;;;;;2.67;2.17;;;;;;;6.97;38.89;102045.25;5019501;28;20532;-70
2021/04/26 01:50:00;;;;;;;3.00;2.60;;;;;;;6.91;39.20;102051.94;5019290;28;20418;-70
2021/04/26 01:52:26;;;;;;;3.20;2.63;;;;;;;7.14;39.42;102043.44;5018379;28;20414;-70
2021/04/26 01:54:51;;;;;;;2.87;2.33;;;;;;;7.12;39.00;102045.94;5019760;28;20741;-69
2021/04/26 01:57:17;;;;;;;2.60;2.40;;;;;;;7.23;38.38;102047.31;5001974;28;20325;-69
2021/04/26 01:59:42;;;;;;;4.20;2.67;;;;;;;7.19;38.91;102037.63;5018257;28;20163;-70
2021/04/26 02:02:08;;;;;;;3.40;2.63;;;;;;;7.28;37.98;102041.44;5002296;28;20433;-70
2021/04/26 02:04:35;;;;;;;2.73;2.30;;;;;;;7.08;39.00;102041.44;5018883;28;20512;-70
2021/04/26 02:07:01;;;;;;;2.37;2.10;;;;;;;7.01;38.09;102037.69;5018849;28;20191;-69
2021/04/26 02:09:27;;;;;;;2.70;2.00;;;;;;;7.02;38.05;102038.56;5019445;28;20417;-70
2021/04/26 02:11:53;;;;;;;3.60;2.77;;;;;;;7.35;37.99;102033.13;5018639;28;20228;-70
2021/04/26 02:14:18;;;;;;;3.63;2.73;;;;;;;7.31;37.91;102032.09;5018879;28;20410;-69
2021/04/26 02:16:44;;;;;;;4.70;2.30;;;;;;;7.28;38.22;102033.66;5002041;28;20612;-69
2021/04/26 02:19:11;;;;;;;2.80;2.50;;;;;;;7.14;38.42;102030.47;5001813;28;20194;-69
2021/04/26 02:21:39;;;;;;;4.80;2.73;;;;;;;7.47;39.31;102031.06;5018704;28;20411;-69
2021/04/26 02:24:04;;;;;;;2.53;2.33;;;;;;;7.53;38.26;102033.03;5005881;28;20466;-69
2021/04/26 02:26:30;;;;;;;6.53;2.90;;;;;;;7.35;39.34;102026.22;5018478;28;20410;-69
2021/04/26 02:28:55;;;;;;;2.83;2.63;;;;;;;7.41;40.60;102026.50;5018698;28;20194;-69
2021/04/26 02:31:22;;;;;;;2.43;2.10;;;;;;;7.59;38.21;102028.09;5018278;28;20167;-68
2021/04/26 02:33:58;;;;;;;2.70;2.23;;;;;;;6.79;40.29;102025.44;5017726;28;20170;-68
2021/04/26 02:36:28;;;;;;;3.27;2.97;;;;;;;7.33;40.54;102022.66;5019695;28;20489;-68
2021/04/26 02:38:56;;;;;;;3.63;2.70;;;;;;;7.22;40.05;102016.13;5017884;28;20878;-68
2021/04/26 02:41:39;;;;;;;3.40;2.60;;;;;;;7.35;40.45;102020.16;5018803;28;20701;-68
2021/04/26 02:44:09;;;;;;;3.13;2.67;;;;;;;6.76;42.20;102027.03;5017712;28;20422;-69
2021/04/26 02:46:35;;;;;;;4.33;2.80;;;;;;;7.13;41.65;102023.50;5017717;28;20432;-70
2021/04/26 02:49:01;;;;;;;3.17;2.70;;;;;;;7.28;41.38;102026.78;5017670;28;20422;-70
2021/04/26 02:51:32;;;;;;;2.90;2.60;;;;;;;7.16;41.44;102021.06;5017460;28;20171;-69
2021/04/26 02:53:57;;;;;;;7.43;3.23;;;;;;;7.30;42.49;102019.06;5018799;28;20418;-69
2021/04/26 02:56:23;;;;;;;9.80;3.73;;;;;;;7.12;42.71;102020.03;5022954;28;20449;-69
2021/04/26 02:58:51;;;;;;;8.03;3.90;;;;;;;7.07;43.95;102022.38;5024118;28;20163;-69
2021/04/26 03:01:17;;;;;;;5.97;5.20;;;;;;;7.50;44.31;102022.53;5025043;28;20177;-69
2021/04/26 03:03:43;;;;;;;6.73;5.20;;;;;;;7.54;42.70;102019.22;5024696;28;20504;-69
2021/04/26 03:06:10;;;;;;;6.23;5.63;;;;;;;7.13;43.09;102016.63;5023985;28;20217;-71
2021/04/26 03:08:36;;;;;;;5.40;4.90;;;;;;;7.00;43.45;102015.16;5024307;28;20449;-69
2021/04/26 03:11:04;;;;;;;5.90;5.17;;;;;;;6.70;44.57;102017.28;5024611;28;20424;-69
2021/04/26 03:13:30;;;;;;;5.73;5.23;;;;;;;6.97;44.42;102008.94;5023899;28;20171;-70
2021/04/26 03:15:56;;;;;;;5.93;5.40;;;;;;;7.11;43.77;102007.00;5024460;28;20699;-69
2021/04/26 03:18:21;;;;;;;6.00;5.40;;;;;;;6.69;44.66;102003.41;5024541;28;20584;-70
2021/04/26 03:20:47;;;;;;;5.53;5.03;;;;;;;6.80;44.56;102005.63;5023721;28;20233;-69
2021/04/26 03:23:18;;;;;;;5.07;4.10;;;;;;;6.69;45.66;102007.72;5024775;28;20167;-69
2021/04/26 03:25:44;;;;;;;4.47;4.07;;;;;;;6.86;44.58;102005.88;5025410;28;20258;-70
2021/04/26 03:28:10;;;;;;;5.47;4.33;;;;;;;6.74;45.66;102001.03;5007421;28;20549;-70
2021/04/26 03:30:36;;;;;;;5.07;4.30;;;;;;;6.93;44.61;102010.53;5024440;28;20209;-69
2021/04/26 03:33:01;;;;;;;5.40;3.93;;;;;;;6.86;44.42;102009.38;5007477;28;20831;-69
2021/04/26 03:35:27;;;;;;;4.43;3.73;;;;;;;6.73;44.82;101997.53;5024663;28;20512;-69
2021/04/26 03:37:53;;;;;;;4.47;3.70;;;;;;;7.02;44.28;101998.00;5024555;28;20262;-69
2021/04/26 03:40:21;;;;;;;4.10;3.70;;;;;;;7.00;44.68;101999.59;5023595;28;20559;-68
2021/04/26 03:42:47;;;;;;;4.10;3.70;;;;;;;6.75;45.38;101995.00;5025025;28;20838;-69
2021/04/26 03:45:16;;;;;;;3.47;3.17;;;;;;;7.16;45.43;101992.53;5024522;28;20425;-69
2021/04/26 03:47:43;;;;;;;4.10;3.67;;;;;;;6.73;46.46;101994.94;5024187;28;20240;-68
2021/04/26 03:50:09;;;;;;;5.77;4.13;;;;;;;6.87;45.96;101992.09;5024885;28;20787;-69
2021/04/26 03:52:35;;;;;;;5.60;4.03;;;;;;;6.78;45.83;102002.97;5024293;28;20410;-69
2021/04/26 03:55:00;;;;;;;5.33;4.53;;;;;;;6.90;45.39;101994.81;5024233;28;20405;-68
2021/04/26 03:57:25;;;;;;;6.23;5.10;;;;;;;6.78;45.00;101992.59;5024798;28;20194;-67
2021/04/26 03:59:50;;;;;;;9.73;4.90;;;;;;;6.93;45.73;101994.97;5024356;28;20261;-69
2021/04/26 04:02:16;;;;;;;11.13;4.77;;;;;;;7.19;45.04;101990.06;5024006;28;20167;-70
2021/04/26 04:04:41;;;;;;;6.63;4.97;;;;;;;7.03;43.99;101984.19;5024950;28;20185;-69
2021/04/26 04:07:06;;;;;;;5.70;4.50;;;;;;;6.93;44.33;101991.47;5022251;28;20580;-70
2021/04/26 04:09:32;;;;;;;9.10;4.37;;;;;;;6.74;44.38;101985.50;5021063;28;20233;-68
2021/04/26 04:11:57;;;;;;;5.23;4.73;;;;;;;6.85;44.46;101986.84;5021375;28;20266;-68
2021/04/26 04:14:22;;;;;;;8.87;5.00;;;;;;;6.60;45.23;101990.03;5020887;28;20166;-69
2021/04/26 04:16:48;;;;;;;7.43;5.60;;;;;;;6.45;45.50;101991.91;5020958;28;20270;-69
2021/04/26 04:19:13;;;;;;;7.60;4.63;;;;;;;6.70;43.92;101994.81;5021659;28;20183;-68
2021/04/26 04:21:38;;;;;;;5.40;4.90;;;;;;;6.30;45.29;101987.78;5021275;28;20213;-70
2021/04/26 04:24:04;;;;;;;5.00;4.30;;;;;;;6.91;43.63;101983.63;5021134;28;20265;-68
2021/04/26 04:26:30;;;;;;;6.60;4.33;;;;;;;6.90;43.00;101977.59;5021663;28;20518;-71
2021/04/26 04:28:55;;;;;;;6.20;4.60;;;;;;;7.12;43.23;101977.63;5021467;28;20473;-68
2021/04/26 04:31:20;;;;;;;5.30;3.90;;;;;;;7.03;43.01;101984.19;5022730;28;20178;-68
2021/04/26 04:33:46;;;;;;;4.17;3.77;;;;;;;6.77;42.20;101985.63;5024497;28;20182;-69
2021/04/26 04:36:11;;;;;;;4.30;3.67;;;;;;;6.98;43.08;101975.34;5020986;28;20447;-70
2021/04/26 04:38:37;;;;;;;4.50;3.90;;;;;;;7.20;42.17;101965.91;5021004;28;20175;-69
2021/04/26 04:41:02;;;;;;;4.70;3.93;;;;;;;6.92;43.56;101969.88;5020974;28;20174;-69
2021/04/26 04:43:27;;;;;;;4.13;3.70;;;;;;;6.71;42.83;101974.97;5020898;28;20175;-70
2021/04/26 04:45:53;;;;;;;6.70;3.60;;;;;;;6.95;42.56;101969.13;5020918;28;20236;-69
2021/04/26 04:48:18;;;;;;;4.73;3.70;;;;;;;7.18;41.31;101964.94;5021279;28;20238;-70
2021/04/26 04:50:44;;;;;;;4.73;3.83;;;;;;;7.32;42.59;101966.44;5021341;28;20195;-69
2021/04/26 04:53:09;;;;;;;5.30;4.23;;;;;;;7.47;41.43;101960.09;5005963;28;20171;-70
2021/04/26 04:55:35;;;;;;;5.03;4.03;;;;;;;7.49;40.99;101961.06;5022420;28;20171;-69
2021/04/26 04:58:00;;;;;;;4.47;4.07;;;;;;;6.89;43.58;101959.38;5020756;28;20222;-69
2021/04/26 05:00:26;;;;;;;5.40;3.80;;;;;;;7.08;42.48;101961.94;5020448;28;20259;-70
2021/04/26 05:02:51;;;;;;;3.80;3.40;;;;;;;7.19;41.14;101956.34;5020952;28;20163;-69
2021/04/26 05:05:16;;;;;;;3.83;3.53;;;;;;;7.47;41.62;101961.00;5020670;28;20233;-69
2021/04/26 05:07:42;;;;;;;5.00;3.53;;;;;;;7.93;40.71;101960.28;5020147;28;20245;-69
2021/04/26 05:10:08;;;;;;;4.93;3.70;;;;;;;7.68;40.04;101957.50;5020961;28;20182;-68
2021/04/26 05:12:33;;;;;;;5.63;3.53;;;;;;;7.39;40.01;101955.47;5020502;28;20219;-69
2021/04/26 05:14:59;;;;;;;5.67;3.60;;;;;;;7.17;40.43;101955.38;5020175;28;20445;-68
2021/04/26 05:17:26;;;;;;;4.53;3.40;;;;;;;7.99;38.85;101956.16;5003796;28;20178;-68
2021/04/26 05:19:51;;;;;;;4.30;3.40;;;;;;;7.68;40.03;101949.72;5019059;28;20202;-69
2021/04/26 05:22:16;;;;;;;3.80;3.50;;;;;;;7.30;39.77;101957.69;5020005;28;20677;-70
2021/04/26 05:24:42;;;;;;;4.60;3.50;;;;;;;7.84;38.88;101953.84;5020043;28;20229;-68
2021/04/26 05:27:07;;;;;;;3.97;3.67;;;;;;;7.95;38.84;101951.69;5002876;28;20492;-69
2021/04/26 05:29:33;;;;;;;4.80;3.90;;;;;;;8.16;38.27;101952.53;5019888;28;20167;-69
2021/04/26 05:31:58;;;;;;;7.70;4.07;;;;;;;8.09;38.66;101953.09;5019795;28;20250;-70
2021/04/26 05:34:23;;;;;;;5.03;3.73;;;;;;;8.37;37.53;101962.84;5020083;28;20166;-70
2021/04/26 05:36:48;;;;;;;4.80;3.70;;;;;;;8.80;37.50;101960.13;5020604;28;20171;-68
2021/04/26 05:39:14;;;;;;;10.10;4.10;;;;;;;8.92;36.74;101963.19;5020008;28;20233;-69
2021/04/26 05:41:39;;;;;;;5.93;4.10;;;;;;;8.51;37.47;101966.03;5019629;28;20595;-70
2021/04/26 05:44:05;;;;;;;7.03;4.20;;;;;;;8.27;38.74;101966.81;5020132;28;20167;-70
2021/04/26 05:46:30;;;;;;;9.73;4.93;;;;;;;8.04;38.95;101967.63;5019533;28;20229;-70
2021/04/26 05:48:55;;;;;;;5.10;4.40;;;;;;;8.20;37.53;101962.22;5019239;28;20213;-68
2021/04/26 05:51:21;;;;;;;4.97;4.53;;;;;;;10.10;33.73;101950.63;5019875;28;20166;-70
2021/04/26 05:53:46;;;;;;;4.50;4.10;;;;;;;9.35;35.17;101951.69;5019479;28;20237;-69
2021/04/26 05:56:12;;;;;;;7.03;4.40;;;;;;;9.83;34.64;101944.56;5019546;28;20174;-69
2021/04/26 05:58:37;;;;;;;4.70;4.30;;;;;;;9.47;34.77;101951.22;5019787;28;20190;-69
2021/04/26 06:01:03;;;;;;;4.20;3.80;;;;;;;9.55;34.54;101949.75;5019442;28;20552;-70
2021/04/26 06:03:28;;;;;;;7.10;4.60;;;;;;;9.60;35.39;101955.09;5019216;28;20175;-70
2021/04/26 06:05:54;;;;;;;7.90;4.70;;;;;;;10.62;33.36;101947.84;5019377;28;20232;-69
2021/04/26 06:08:19;;;;;;;5.67;5.17;;;;;;;10.59;32.25;101950.38;5019204;28;20207;-69
2021/04/26 06:10:45;;;;;;;5.17;4.40;;;;;;;12.57;29.41;101948.34;5019206;28;20544;-70
2021/04/26 06:13:11;;;;;;;5.50;4.70;;;;;;;11.82;30.77;101954.47;5019793;28;20175;-69
2021/04/26 06:15:36;;;;;;;6.40;4.50;;;;;;;11.71;29.99;101944.63;5019214;28;20472;-69
2021/04/26 06:18:11;;;;;;;4.70;4.30;;;;;;;11.16;30.72;101948.47;5019119;28;20273;-70
2021/04/26 06:20:38;;;;;;;5.40;3.93;;;;;;;12.10;28.49;101933.38;5018811;28;20206;-69
2021/04/26 06:23:04;;;;;;;4.77;3.70;;;;;;;10.81;30.48;101937.94;5018934;28;20426;-71
2021/04/26 06:25:29;;;;;;;6.10;4.13;;;;;;;11.27;31.32;101947.00;5019006;28;20552;-71
2021/04/26 06:27:55;;;;;;;8.17;4.67;;;;;;;12.07;29.67;101938.56;5020278;28;20213;-69
2021/04/26 06:30:20;;;;;;;4.30;3.90;;;;;;;12.10;29.44;101937.75;5019555;28;20175;-71
2021/04/26 06:32:45;;;;;;;4.30;3.70;;;;;;;12.43;28.56;101932.38;5019680;28;20521;-71
2021/04/26 06:35:11;;;;;;;4.80;3.97;;;;;;;12.74;27.79;101929.50;5018777;28;20195;-70
2021/04/26 06:37:36;;;;;;;6.00;3.40;;;;;;;13.45;26.64;101933.44;5018831;28;20493;-71
2021/04/26 06:40:02;;;;;;;5.20;3.40;;;;;;;13.65;26.80;101925.91;5019302;28;20540;-70
2021/04/26 06:42:29;;;;;;;5.47;3.63;;;;;;;13.08;27.49;101919.66;5018548;28;20175;-70
2021/04/26 06:44:54;;;;;;;9.47;4.03;;;;;;;13.56;25.35;101917.91;5018517;28;20178;-70
2021/04/26 06:47:20;;;;;;;4.30;3.60;;;;;;;14.86;24.85;101917.06;5019184;28;20460;-71
2021/04/26 06:49:45;;;;;;;5.73;4.00;;;;;;;15.28;24.59;101910.47;5018676;28;20217;-71
2021/04/26 06:52:10;;;;;;;4.57;3.30;;;;;;;14.55;24.94;101916.69;5018369;28;20174;-70
2021/04/26 06:54:35;;;;;;;4.60;3.30;;;;;;;15.43;24.13;101921.09;5019185;28;20445;-70
2021/04/26 06:57:01;;;;;;;5.40;3.50;;;;;;;15.16;23.99;101912.09;5001394;28;20212;-71
2021/04/26 06:59:26;;;;;;;3.83;3.50;;;;;;;14.08;25.09;101913.44;5018096;28;20258;-69
2021/04/26 07:01:51;;;;;;;4.10;3.70;;;;;;;14.15;25.28;101914.41;5018745;28;20171;-70
2021/04/26 07:04:17;;;;;;;4.50;3.63;;;;;;;14.34;25.63;101918.16;5005571;28;20520;-71
2021/04/26 07:06:42;;;;;;;3.50;3.20;;;;;;;14.03;24.86;101908.97;4998255;28;20495;-69
2021/04/26 07:09:07;;;;;;;6.57;3.23;;;;;;;15.29;23.55;101909.59;4998692;28;20178;-70
2021/04/26 07:11:32;;;;;;;3.83;3.20;;;;;;;16.89;21.56;101896.50;4998611;28;20179;-69
2021/04/26 07:13:58;;;;;;;3.80;2.90;;;;;;;15.96;22.49;101905.75;4998692;28;20180;-71
2021/04/26 07:16:23;;;;;;;3.70;3.03;;;;;;;17.13;21.06;101887.75;4999196;28;20253;-71
2021/04/26 07:18:48;;;;;;;2.50;2.30;;;;;;;17.02;20.38;101885.97;4998244;28;20229;-69
2021/04/26 07:21:14;;;;;;;4.07;3.00;;;;;;;16.89;20.58;101883.31;4998655;28;20183;-70
2021/04/26 07:23:39;;;;;;;3.17;2.87;;;;;;;17.90;20.10;101888.56;4998722;28;20524;-70
2021/04/26 07:26:05;;;;;;;4.83;3.00;;;;;;;19.02;18.08;101885.44;4998647;28;20187;-69
2021/04/26 07:28:31;;;;;;;2.80;2.47;;;;;;;16.75;20.32;101890.28;4998257;28;20262;-69
2021/04/26 07:30:56;;;;;;;2.87;2.60;;;;;;;16.39;20.46;101887.53;4998209;28;20176;-70
2021/04/26 07:33:21;;;;;;;3.63;2.80;;;;;;;18.78;18.60;101881.19;4998366;28;20182;-70
2021/04/26 07:35:46;;;;;;;2.83;2.33;;;;;;;19.44;17.37;101871.88;4998792;28;20186;-70
2021/04/26 07:38:12;;;;;;;4.40;2.70;;;;;;;17.53;19.41;101878.94;4998402;28;20215;-70
2021/04/26 07:40:37;;;;;;;3.40;2.50;;;;;;;18.62;18.01;101884.81;4998361;28;20258;-70
2021/04/26 07:43:02;;;;;;;2.60;2.40;;;;;;;18.26;18.63;101881.44;5002494;28;20547;-69
2021/04/26 07:45:28;;;;;;;2.70;2.50;;;;;;;16.29;20.47;101891.88;5002202;28;20180;-71
2021/04/26 07:47:55;;;;;;;2.60;2.33;;;;;;;15.78;21.10;101899.47;5002128;28;20245;-71
2021/04/26 07:50:20;;;;;;;4.70;2.70;;;;;;;16.41;20.78;101893.69;5002208;28;20176;-70
2021/04/26 07:52:45;;;;;;;3.83;2.80;;;;;;;16.25;20.70;101892.75;5002119;28;20681;-71
2021/04/26 07:55:11;;;;;;;3.30;3.00;;;;;;;15.43;20.45;101899.22;5001853;28;20222;-70
2021/04/26 07:57:37;;;;;;;3.50;2.70;;;;;;;16.07;21.25;101898.78;5005400;28;20174;-70
2021/04/26 08:00:07;;;;;;;3.10;2.80;;;;;;;15.15;20.88;101891.06;5021269;28;20167;-66
2021/04/26 08:02:32;;;;;;;3.97;2.57;;;;;;;14.96;22.13;101887.41;5021325;28;20186;-70
2021/04/26 08:04:57;;;;;;;4.20;3.03;;;;;;;16.00;21.03;101889.97;5021659;28;20437;-69
2021/04/26 08:07:23;;;;;;;3.20;2.90;;;;;;;16.32;20.34;101877.88;5020891;28;20269;-70
2021/04/26 08:09:48;;;;;;;5.10;2.57;;;;;;;15.30;21.71;101883.34;5021018;28;20500;-69
2021/04/26 08:12:13;;;;;;;2.93;2.67;;;;;;;14.15;22.73;101885.56;5021467;28;20177;-70
2021/04/26 08:14:39;;;;;;;2.83;2.50;;;;;;;15.82;21.76;101876.75;5021050;28;20179;-69
2021/04/26 08:17:04;;;;;;;3.40;2.67;;;;;;;16.80;21.36;101872.72;5021065;28;20174;-68
2021/04/26 08:19:30;;;;;;;3.43;2.73;;;;;;;15.31;22.35;101892.09;5021428;28;20171;-70
2021/04/26 08:21:55;;;;;;;3.70;2.90;;;;;;;16.11;20.70;101878.63;5021045;28;20179;-70
2021/04/26 08:24:20;;;;;;;2.97;2.77;;;;;;;16.90;20.32;101868.38;5021749;28;20627;-69
2021/04/26 08:26:46;;;;;;;4.00;2.50;;;;;;;17.59;19.72;101862.22;5022945;28;20435;-69
2021/04/26 08:29:11;;;;;;;3.90;3.10;;;;;;;17.33;19.08;101864.03;5020941;28;20194;-69
2021/04/26 08:31:36;;;;;;;4.23;2.87;;;;;;;18.86;18.18;101857.31;5020544;28;20182;-70
2021/04/26 08:34:02;;;;;;;2.90;2.30;;;;;;;18.76;18.04;101856.50;5021302;28;20167;-69
2021/04/26 08:36:27;;;;;;;3.00;2.70;;;;;;;18.88;17.58;101852.06;5020682;28;20194;-70
2021/04/26 08:38:52;;;;;;;6.50;2.93;;;;;;;17.94;18.48;101862.22;5020753;28;20171;-71
2021/04/26 08:41:18;;;;;;;3.10;2.80;;;;;;;17.75;18.89;101861.34;5020661;28;20175;-71
2021/04/26 08:43:45;;;;;;;5.50;3.03;;;;;;;19.61;17.30;101849.69;5020642;28;20273;-71
2021/04/26 08:46:10;;;;;;;3.63;2.80;;;;;;;18.33;18.03;101849.75;5003368;28;20175;-69
2021/04/26 08:48:36;;;;;;;2.90;2.57;;;;;;;17.39;19.52;101849.09;5003770;28;20874;-71
2021/04/26 08:51:02;;;;;;;3.97;2.90;;;;;;;18.22;18.40;101851.53;5018748;28;20207;-71
2021/04/26 08:53:28;;;;;;;4.77;2.80;;;;;;;18.72;18.38;101851.28;4994764;28;20188;-73
2021/04/26 08:55:54;;;;;;;5.10;3.00;;;;;;;18.54;18.19;101855.78;5011851;28;20422;-72
2021/04/26 08:58:20;;;;;;;3.43;3.00;;;;;;;19.50;17.92;101852.44;5000849;28;20441;-72
2021/04/26 09:00:45;;;;;;;2.80;2.50;;;;;;;17.79;18.79;101855.19;5005638;28;20454;-71
2021/04/26 09:03:11;;;;;;;4.90;3.20;;;;;;;18.01;19.42;101844.59;5022231;28;20175;-71
2021/04/26 09:05:38;;;;;;;6.83;3.60;;;;;;;18.95;18.12;101840.56;5024949;28;20197;-68
2021/04/26 09:08:06;;;;;;;4.70;3.90;;;;;;;18.73;18.63;101840.69;5019897;28;20203;-69
2021/04/26 09:10:39;;;;;;;3.70;2.90;;;;;;;17.71;19.61;101841.13;5033594;28;20444;-69
2021/04/26 09:13:28;;;;;;;7.43;3.80;;;;;;;16.96;20.09;101844.69;5020823;28;20441;-67
2021/04/26 09:15:55;;;;;;;5.30;2.97;;;;;;;15.19;21.97;101845.56;5014695;28;20412;-68
2021/04/26 09:18:20;;;;;;;6.20;3.30;;;;;;;18.08;19.32;101833.13;5015212;28;20488;-69
2021/04/26 09:20:46;;;;;;;4.67;3.10;;;;;;;18.24;18.90;101830.41;5027416;28;20524;-69
2021/04/26 09:23:15;;;;;;;7.27;3.53;;;;;;;17.39;20.77;101828.88;5017815;28;20195;-71
2021/04/26 09:25:42;;;;;;;4.40;3.20;;;;;;;19.61;17.50;101826.75;5016929;28;20269;-69
2021/04/26 09:28:13;;;;;;;6.97;3.30;;;;;;;19.71;17.36;101821.38;5019494;28;20841;-69
2021/04/26 09:30:45;;;;;;;5.20;2.90;;;;;;;19.64;17.90;101809.97;5017042;28;20445;-70
2021/04/26 09:33:36;;;;;;;4.40;3.80;;;;;;;19.75;17.41;101808.06;5014064;28;20430;-71
2021/04/26 09:36:20;;;;;;;4.10;3.17;;;;;;;19.07;18.06;101803.47;5013881;28;20516;-71
2021/04/26 09:38:48;;;;;;;3.73;3.17;;;;;;;18.12;18.91;101811.13;5001832;28;20552;-70
2021/04/26 09:41:15;;;;;;;4.27;3.17;;;;;;;19.84;17.13;101802.69;5013586;28;20706;-71
2021/04/26 09:43:42;;;;;;;10.90;3.23;;;;;;;20.04;16.94;101793.66;5014273;28;20445;-70
2021/04/26 09:46:08;;;;;;;3.87;2.93;;;;;;;20.44;16.36;101802.81;5017656;28;20747;-72
2021/04/26 09:48:34;;;;;;;3.73;3.30;;;;;;;20.29;16.57;101790.66;5019360;28;20466;-72
2021/04/26 09:51:00;;;;;;;4.23;3.83;;;;;;;18.06;18.98;101803.22;5019363;28;20434;-72
2021/04/26 09:53:35;;;;;;;4.47;3.27;;;;;;;18.48;18.97;101798.59;5018663;28;20190;-70
2021/04/26 09:56:20;;;;;;;5.10;3.50;;;;;;;19.10;17.57;101792.88;5018768;28;20440;-70
2021/04/26 09:58:49;;;;;;;5.23;3.10;;;;;;;17.64;18.89;101803.34;5019165;28;20839;-69
2021/04/26 10:01:14;;;;;;;3.40;2.97;;;;;;;18.55;17.48;101791.53;5018052;28;20540;-70
2021/04/26 10:03:40;;;;;;;4.50;3.40;;;;;;;18.62;17.90;101779.16;5017485;28;20527;-69
2021/04/26 10:06:06;;;;;;;3.80;3.37;;;;;;;18.74;17.91;101794.00;5017223;28;20233;-69
2021/04/26 10:08:31;;;;;;;3.57;3.27;;;;;;;18.03;18.07;101792.69;5019031;28;20466;-71
2021/04/26 10:10:57;;;;;;;8.80;3.20;;;;;;;18.23;17.40;101789.94;5018874;28;20187;-70
2021/04/26 10:13:23;;;;;;;3.70;3.40;;;;;;;18.06;17.33;101792.66;5018167;28;20213;-70
2021/04/26 10:15:57;;;;;;;5.03;3.07;;;;;;;17.07;18.28;101789.38;5017903;28;20175;-70
2021/04/26 10:18:36;;;;;;;6.73;3.50;;;;;;;17.58;18.18;101779.63;5017288;28;20791;-69
2021/04/26 10:21:03;;;;;;;4.73;3.20;;;;;;;18.40;17.04;101768.75;5017148;28;20461;-72
2021/04/26 10:23:37;;;;;;;4.33;3.13;;;;;;;16.77;18.84;101780.56;5008111;28;20485;-72
2021/04/26 10:26:03;;;;;;;7.70;3.30;;;;;;;17.15;18.63;101777.06;5014430;28;20430;-70
2021/04/26 10:28:31;;;;;;;4.87;3.20;;;;;;;18.06;17.47;101774.19;4999231;28;20543;-70
2021/04/26 10:30:59;;;;;;;3.80;3.50;;;;;;;18.11;18.46;101774.19;5015430;28;20190;-69
2021/04/26 10:33:24;;;;;;;5.57;3.70;;;;;;;17.56;18.88;101757.66;5006475;28;20453;-69
2021/04/26 10:35:51;;;;;;;5.83;3.57;;;;;;;16.57;20.18;101772.66;5018020;28;20440;-68
2021/04/26 10:38:37;;;;;;;4.23;3.83;;;;;;;16.24;20.31;101762.06;5016340;28;20182;-69
2021/04/26 10:41:04;;;;;;;6.73;3.50;;;;;;;15.90;20.63;101758.41;5018596;28;20491;-70
2021/04/26 10:43:31;;;;;;;4.00;3.57;;;;;;;17.12;19.47;101758.63;5012404;28;20703;-72
2021/04/26 10:46:19;;;;;;;4.40;3.70;;;;;;;16.87;20.11;101755.09;5018519;28;20459;-71
2021/04/26 10:49:03;;;;;;;5.00;4.33;;;;;;;16.78;20.71;101759.50;5018238;28;20548;-72
2021/04/26 10:51:28;;;;;;;5.87;4.20;;;;;;;16.34;20.90;101755.06;5000243;28;20441;-71
2021/04/26 10:53:54;;;;;;;4.17;3.77;;;;;;;14.46;22.53;101760.00;5018196;28;20468;-69
2021/04/26 10:56:27;;;;;;;6.80;4.40;;;;;;;15.71;21.90;101752.19;5018439;28;20445;-71
2021/04/26 10:59:12;;;;;;;4.20;3.73;;;;;;;16.25;20.69;101747.13;5001205;28;20178;-70
2021/04/26 11:01:45;;;;;;;5.77;3.57;;;;;;;14.89;22.01;101749.06;5006907;28;20445;-69
2021/04/26 11:04:10;;;;;;;6.53;4.50;;;;;;;16.46;20.66;101738.41;5011712;28;20706;-71
2021/04/26 11:06:36;;;;;;;5.37;3.40;;;;;;;16.88;20.75;101733.16;5018698;28;20484;-69
2021/04/26 11:09:36;;;;;;;7.10;5.50;;;;;;;16.71;21.05;101728.78;5018320;28;20245;-70
2021/04/26 11:12:01;;;;;;;4.27;3.87;;;;;;;16.47;20.90;101730.50;5000201;28;20187;-70
2021/04/26 11:14:27;;;;;;;5.23;4.70;;;;;;;16.47;20.58;101730.50;5010636;28;20453;-71
2021/04/26 11:16:57;;;;;;;5.90;3.77;;;;;;;16.92;19.93;101727.03;5016310;28;20449;-69
2021/04/26 11:19:23;;;;;;;4.93;4.00;;;;;;;16.83;19.40;101718.25;5021127;28;20512;-71
2021/04/26 11:21:48;;;;;;;4.80;4.17;;;;;;;16.38;20.02;101713.84;5021503;28;20428;-70
2021/04/26 11:24:24;;;;;;;5.70;4.50;;;;;;;17.60;19.74;101706.69;5021766;28;20223;-67
2021/04/26 11:27:08;;;;;;;4.00;3.40;;;;;;;17.59;19.84;101704.91;5015140;28;20190;-68
2021/04/26 11:29:53;;;;;;;3.93;3.53;;;;;;;17.07;19.52;101699.81;5019666;28;20445;-67